Enterprise, Utah
Current Conditions -  °F | °C
As of 3:53 PM on Saturday 22 Nov 2014 (Local Time) from KCDC Reporting Station
Clear Clear  
Wind Chill: 52°   Ceiling: Unl
Heat Index: 52°   Visibility: 10mi
Dew Point: 21°   Wind: 22mph
Humidity: 30%   Direction: 220°SW
Pressure: 29.87"   Gusts: 33mph
Location:  37.57°N, 113.72°W
Report Text: KCDC 222253Z AUTO 22019G29KT 10SM CLR 11/M06 A2987 RMK AO2 PK WND 21029/2227 SLP091 T01111061
Loading
Personal Weather Stations






























Interactive Weather Map New forecast layout! Learn more

10-Day Weather Forecast

Advertisements
Track Severe Weather on mobile